Buoy 44746

sailwx.info

Track history (hours):
 
Tides and Currents Weather Stations Pressure Air Temp Water Temp Dewpoint Dewpoint Depression Visibility Wind Speed Wind Dir Waves Ship Positions

Drifting buoy 44746

Last reported at 2018-Feb-20 01:00 UTC. Time now 2018-Feb-20 02:07 UTC.
Position N 32°45' W 040°25'.

Barometer 1018.1 mb
Water temperature 19.5 ° C

Date/timePositionNaut miles runAvg speedWind from/ knotsBaromVisibWave heightAir tempDewpointWater temp
2018-Feb-20 01:00N 32°45' W 040°25'1 1.2 1018.1 19.5
2018-Feb-20 00:00N 32°46' W 040°25'1 1.3 1017.7 19.5
2018-Feb-19 23:00N 32°47' W 040°25'1 1.3 1017.6 19.5
2018-Feb-19 22:00N 32°49' W 040°26'2 1.9 1017.4 19.6
2018-Feb-19 21:00N 32°50' W 040°26'1 0.8 1016.2 19.6
2018-Feb-19 20:00N 32°51' W 040°27'1 0.6 1016.4 19.6
2018-Feb-19 19:00N 32°52' W 040°27'1 0.5 1016.6 19.6
2018-Feb-19 18:00N 32°52' W 040°28'0 0.0 1017.0 19.5
2018-Feb-19 17:00N 32°52' W 040°28'1 0.8 1017.7 19.5
2018-Feb-19 16:00N 32°52' W 040°28'0 0.0 1018.4 19.5
2018-Feb-19 15:00N 32°52' W 040°28'0 0.0 1019.5 19.4
2018-Feb-19 14:00N 32°52' W 040°28'1 0.8 1020.3 19.4
2018-Feb-19 13:00N 32°53' W 040°29'0 0.0 1020.7 19.4
2018-Feb-19 12:00N 32°53' W 040°29'0 0.0 1021.0 19.5
2018-Feb-19 11:00N 32°53' W 040°29'1 0.6 1021.0 19.7
2018-Feb-19 10:00N 32°53' W 040°29'1 0.5 1020.9 19.8
2018-Feb-19 09:00N 32°53' W 040°28'1 0.6 1020.9 19.9
2018-Feb-19 08:00N 32°54' W 040°28'0 0.0 1021.0 19.9
2018-Feb-19 07:00N 32°54' W 040°28'1 0.6 1021.3 19.9
2018-Feb-19 06:00N 32°55' W 040°28'0 0.0 1021.6 19.9
2018-Feb-19 05:00N 32°55' W 040°28'1 0.6 1022.1 19.9
2018-Feb-19 04:00N 32°55' W 040°28'1 0.5 1022.3 19.9
2018-Feb-19 03:00N 32°55' W 040°28'1 0.6 1022.6 19.9
2018-Feb-19 02:00N 32°56' W 040°28'1 0.8 1022.8 19.9
2018-Feb-19 01:00N 32°56' W 040°27'0 0.0 1023.2 20.0
2018-Feb-19 00:00N 32°56' W 040°27'1 0.8 1023.2 20.0
2018-Feb-18 23:00N 32°57' W 040°26'1 0.8 1023.2 20.0
2018-Feb-18 22:00N 32°58' W 040°26'1 0.6 1022.9 20.0
2018-Feb-18 21:00N 32°58' W 040°26'1 0.5 1022.8 20.0
2018-Feb-18 20:00N 32°58' W 040°25'1 0.8 1022.6 20.0
2018-Feb-18 19:00N 32°59' W 040°25'0 0.0 1022.7 20.0
2018-Feb-18 18:00N 32°59' W 040°25'1 0.8 1022.9 20.0
2018-Feb-18 17:00N 32°59' W 040°24'1 1.0 1022.6 20.0
2018-Feb-18 16:00N 32°59' W 040°23'1 0.5 1022.9 19.9
2018-Feb-18 15:00N 32°59' W 040°22'1 1.0 1023.8 19.8
2018-Feb-18 14:00N 32°59' W 040°21'1 0.8 1023.9 19.3
2018-Feb-18 13:00N 33°00' W 040°20'1 0.5 1024.0 19.2
2018-Feb-18 12:00N 33°00' W 040°20'1 0.8 1024.1 19.2
2018-Feb-18 11:00N 33°01' W 040°19'1 1.2 1023.9 19.2
2018-Feb-18 10:00N 33°01' W 040°18'1 0.5 1023.5 19.2
2018-Feb-18 09:00N 33°01' W 040°17'1 0.8 1023.0 19.2
2018-Feb-18 08:00N 33°02' W 040°17'1 0.8 1022.4 19.1
2018-Feb-18 07:00N 33°02' W 040°16'1 0.5 1022.1 19.1
2018-Feb-18 06:00N 33°02' W 040°16'1 0.8 1021.9 19.2
2018-Feb-18 05:00N 33°03' W 040°15'1 0.5 1022.6 19.2
2018-Feb-18 04:00N 33°03' W 040°14'1 0.5 1023.2 19.2
2018-Feb-18 03:00N 33°03' W 040°14'0 0.0 1023.4 19.3
2018-Feb-18 02:00N 33°03' W 040°14'1 0.5 1024.3 19.2
2018-Feb-18 01:00N 33°03' W 040°13'1 1.0 1024.6 19.2
2018-Feb-18 00:00N 33°03' W 040°12'1 0.5 1024.7 19.2
2018-Feb-17 23:00N 33°03' W 040°11'1 0.6 1024.9 19.2
2018-Feb-17 22:00N 33°04' W 040°11'1 0.5 1025.1 19.2
2018-Feb-17 21:00N 33°04' W 040°11'0 0.0 1025.0 19.4
2018-Feb-17 20:00N 33°04' W 040°11'0 0.0 1024.4 19.5
2018-Feb-17 19:00N 33°04' W 040°11'1 0.5 1024.0 19.6
2018-Feb-17 18:00N 33°04' W 040°10'0 0.0 1024.0 19.5
2018-Feb-17 17:00N 33°04' W 040°10'1 0.5 1024.4 19.5
2018-Feb-17 16:00N 33°04' W 040°10'1 0.5 1025.0 19.5
2018-Feb-17 15:00N 33°04' W 040°09'1 1.2 1025.8 19.5
2018-Feb-17 14:00N 33°03' W 040°08'1 0.8 1026.6 19.5
2018-Feb-17 13:00N 33°04' W 040°07'1 1.0 1026.8 19.5
2018-Feb-17 12:00N 33°04' W 040°06'1 1.0 1026.8 19.5
2018-Feb-17 11:00N 33°04' W 040°05'1 1.2 1026.6 19.4
2018-Feb-17 10:00N 33°04' W 040°04'1 1.0 1026.1 19.4
2018-Feb-17 09:00N 33°04' W 040°02'1 1.2 1025.6 19.4
2018-Feb-17 08:00N 33°05' W 040°01'1 1.2 1025.4 19.3
2018-Feb-17 07:00N 33°05' W 040°00'1 0.5 1025.4 19.3
2018-Feb-17 06:00N 33°05' W 039°59'1 1.2 1025.5 19.3
2018-Feb-17 05:00N 33°06' W 039°58'1 1.2 1026.1 19.4
2018-Feb-17 04:00N 33°07' W 039°57'1 1.0 1026.2 19.3
2018-Feb-17 03:00N 33°07' W 039°56'1 1.2 1026.4 19.3
2018-Feb-17 02:00N 33°07' W 039°55'1 0.5 1026.8 19.2
2018-Feb-17 01:00N 33°07' W 039°54'1 1.0 1027.1 19.2
2018-Feb-17 00:00N 33°07' W 039°53'1 1.0 1027.2 19.2
2018-Feb-16 23:00N 33°07' W 039°52'1 0.8 1027.1 19.2
2018-Feb-16 22:00N 33°08' W 039°51'1 1.2 1027.0 19.1
2018-Feb-16 21:00N 33°07' W 039°50'1 1.0 1026.7 19.2
2018-Feb-16 20:00N 33°07' W 039°49'2 1.5 1026.2 19.1
2018-Feb-16 19:00N 33°07' W 039°47'1 1.2 1025.8 19.2
2018-Feb-16 18:00N 33°08' W 039°46'2 1.5 1025.7 19.2
2018-Feb-16 17:00N 33°08' W 039°44'1 1.0 1025.7 19.2
2018-Feb-16 16:00N 33°08' W 039°43'1 1.2 1025.9 19.3
2018-Feb-16 15:00N 33°08' W 039°41'1 1.0 1026.4 19.2
2018-Feb-16 14:00N 33°08' W 039°40'1 1.2 1026.8 19.2
2018-Feb-16 13:00N 33°09' W 039°39'1 0.5 1027.2 19.2
2018-Feb-16 12:00N 33°09' W 039°38'1 1.2 1027.3 19.2
2018-Feb-16 11:00N 33°10' W 039°37'1 0.5 1027.2 19.2
2018-Feb-16 10:00N 33°10' W 039°37'1 0.8 1026.8 19.1
2018-Feb-16 09:00N 33°10' W 039°36'1 1.2 1026.3 19.1
2018-Feb-16 08:00N 33°11' W 039°35'1 1.0 1026.1 19.0
2018-Feb-16 07:00N 33°11' W 039°34'1 1.2 1025.8 19.0
2018-Feb-16 06:00N 33°11' W 039°32'2 1.6 1026.0 19.1
2018-Feb-16 05:00N 33°12' W 039°31'1 1.2 1026.3 19.1
2018-Feb-16 04:00N 33°13' W 039°29'1 1.0 1026.3 19.1
2018-Feb-16 03:00N 33°13' W 039°28'1 1.2 1026.4 19.1
2018-Feb-16 02:00N 33°13' W 039°27'1 1.0 1026.4 19.1
2018-Feb-16 01:00N 33°13' W 039°26'1 0.8 1026.5 19.1
2018-Feb-16 00:00N 33°14' W 039°25'2 1.5 1026.4 19.1
2018-Feb-15 23:00N 33°14' W 039°23'1 1.2 1026.2 19.1
2018-Feb-15 22:00N 33°14' W 039°22'1 1.2 1026.0 19.2
2018-Feb-15 21:00N 33°15' W 039°21'1 1.2 1025.6 19.3
2018-Feb-15 20:00N 33°16' W 039°20'2 1.6 1025.3 19.4
2018-Feb-15 19:00N 33°17' W 039°19'1 1.2 1024.8 19.3
2018-Feb-15 18:00N 33°17' W 039°17'2 1.6 1024.4 19.3
2018-Feb-15 17:00N 33°19' W 039°16'1 0.8 1024.4 19.3
2018-Feb-15 16:00N 33°19' W 039°16'1 1.3 1024.6 19.3
2018-Feb-15 15:00N 33°20' W 039°15'1 1.2 1024.8 19.2
2018-Feb-15 14:00N 33°21' W 039°14'1 1.2 1025.1 19.2
2018-Feb-15 13:00N 33°22' W 039°13'2 1.6 1025.2 19.1
2018-Feb-15 12:00N 33°23' W 039°11'2 1.6 1024.7 19.1
2018-Feb-15 11:00N 33°23' W 039°10'1 1.2 1024.4 19.1
2018-Feb-15 10:00N 33°24' W 039°08'2 1.6 1023.5 19.2
2018-Feb-15 09:00N 33°25' W 039°07'2 1.9 1023.0 19.3
2018-Feb-15 08:00N 33°26' W 039°05'2 1.6 1022.5 19.4
2018-Feb-15 07:00N 33°26' W 039°03'2 2.1 1022.0 19.5
2018-Feb-15 06:00N 33°27' W 039°01'2 1.9 1021.8 19.8
2018-Feb-15 05:00N 33°28' W 038°59'2 1.6 1021.9 20.0
2018-Feb-15 04:00N 33°29' W 038°57'2 1.9 1022.1 20.0
2018-Feb-15 03:00N 33°30' W 038°55'2 1.9 1022.2 20.0
2018-Feb-15 02:00N 33°31' W 038°53'2 1.6 1022.1 20.1
2018-Feb-15 01:00N 33°32' W 038°52'2 1.6 1022.4 20.0
2018-Feb-15 00:00N 33°33' W 038°50'2 1.6 1022.3 20.1
2018-Feb-14 23:00N 33°34' W 038°49'1 1.2 1022.0 20.1
2018-Feb-14 22:00N 33°35' W 038°48'2 1.6 1021.8 20.0
2018-Feb-14 21:00N 33°36' W 038°47'1 1.3 1021.5 20.1
2018-Feb-14 20:00N 33°37' W 038°46'1 1.2 1021.3 20.1
2018-Feb-14 19:00N 33°38' W 038°45'1 1.3 1021.1 20.1
2018-Feb-14 18:00N 33°39' W 038°44'1 0.6 1021.1 20.1
2018-Feb-14 17:00N 33°40' W 038°44'1 1.3 1021.4 20.1
2018-Feb-14 16:00N 33°41' W 038°44'1 0.8 1021.5 20.1
2018-Feb-14 15:00N 33°41' W 038°43'1 1.2 1022.2 20.0
2018-Feb-14 14:00N 33°43' W 038°43'1 0.8 1022.8 20.1
2018-Feb-14 13:00N 33°43' W 038°43'1 0.6 1023.4 20.1
2018-Feb-14 12:00N 33°44' W 038°43'1 0.8 1023.0 20.1
2018-Feb-14 11:00N 33°44' W 038°42'1 0.6 1022.8 20.1
2018-Feb-14 10:00N 33°45' W 038°42'1 1.3 1022.7 20.1
2018-Feb-14 09:00N 33°46' W 038°41'1 0.6 1022.5 20.0
2018-Feb-14 08:00N 33°47' W 038°41'1 0.8 1022.7 20.0
2018-Feb-14 07:00N 33°47' W 038°41'1 1.3 1023.0 20.0
2018-Feb-14 06:00N 33°49' W 038°40'1 1.2 1023.3 20.0
2018-Feb-14 05:00N 33°50' W 038°40'1 0.8 1023.9 20.0
2018-Feb-14 04:00N 33°50' W 038°40'1 1.2 1024.7 20.0
2018-Feb-14 03:00N 33°52' W 038°40'1 0.6 1025.0 20.0
2018-Feb-14 02:00N 33°52' W 038°40'1 0.6 1025.7 20.1
2018-Feb-14 01:00N 33°53' W 038°40'1 0.6 1025.9 20.1
2018-Feb-14 00:00N 33°53' W 038°40'1 0.6 1026.4 20.0
2018-Feb-13 23:00N 33°54' W 038°40'1 0.8 1026.6 20.1
2018-Feb-13 22:00N 33°55' W 038°39'1 0.6 1026.8 20.1
2018-Feb-13 21:00N 33°55' W 038°39'1 0.6 1027.0 20.1
2018-Feb-13 20:00N 33°56' W 038°39'1 0.8 1027.0 20.2
2018-Feb-13 19:00N 33°56' W 038°38'1 0.6 1027.0 20.2
2018-Feb-13 18:00N 33°57' W 038°38'1 0.8 1027.3 20.2
2018-Feb-13 17:00N 33°58' W 038°38'1 0.6 1027.8 20.2
2018-Feb-13 16:00N 33°58' W 038°38'1 0.6 1028.0 20.3
2018-Feb-13 15:00N 33°59' W 038°38'1 1.2 1028.6 20.3
2018-Feb-13 14:00N 34°00' W 038°38'1 0.8 1029.5 20.1
2018-Feb-13 13:00N 34°01' W 038°37'1 1.2 1030.5 20.1
2018-Feb-13 12:00N 34°02' W 038°37'1 0.6 1030.5 20.1
2018-Feb-13 11:00N 34°02' W 038°37'1 0.6 1030.6 20.1
2018-Feb-13 10:00N 34°03' W 038°37'1 1.3 1030.6 20.1
2018-Feb-13 09:00N 34°04' W 038°37'1 0.6 1030.3 20.1
2018-Feb-13 08:00N 34°05' W 038°37'1 0.8 1030.1 20.1
2018-Feb-13 07:00N 34°05' W 038°36'1 0.8 1030.4 20.1
2018-Feb-13 06:00N 34°06' W 038°35'1 0.6 1030.9 20.2
2018-Feb-13 05:00N 34°07' W 038°35'1 0.8 1031.5 20.1
2018-Feb-13 04:00N 34°07' W 038°35'1 1.2 1032.2 20.1
2018-Feb-13 03:00N 34°08' W 038°35'1 0.8 1032.7 20.1
2018-Feb-13 02:00N 34°09' W 038°34'1 0.8 1033.2 20.1
2018-Feb-13 01:00N 34°10' W 038°34'1 0.6 1033.6 20.2
2018-Feb-13 00:00N 34°10' W 038°34'1 0.8 1034.3 20.1
2018-Feb-12 23:00N 34°11' W 038°33'1 1.2 1034.4 20.1
2018-Feb-12 22:00N 34°11' W 038°32'1 0.8 1034.3 20.1
2018-Feb-12 21:00N 34°12' W 038°31'1 1.3 1034.2 20.1
2018-Feb-12 20:00N 34°13' W 038°31'1 1.2 1034.1 20.2
2018-Feb-12 19:00N 34°14' W 038°29'1 1.3 1034.3 20.3
2018-Feb-12 18:00N 34°15' W 038°29'1 1.3 1034.6 20.3
2018-Feb-12 17:00N 34°16' W 038°28'1 1.3 1035.0 20.3
2018-Feb-12 16:00N 34°17' W 038°28'1 1.3 1035.6 20.4
2018-Feb-12 15:00N 34°19' W 038°27'1 1.3 1036.5 20.3
2018-Feb-12 14:00N 34°20' W 038°26'1 0.8 1037.5 20.1
2018-Feb-12 13:00N 34°20' W 038°26'1 1.3 1038.1 20.1
2018-Feb-12 12:00N 34°22' W 038°25'1 1.3 1038.3 20.1
2018-Feb-12 11:00N 34°23' W 038°25'1 0.6 1038.1 20.1
2018-Feb-12 10:00N 34°23' W 038°25'1 1.3 1037.7 20.1
2018-Feb-12 09:00N 34°25' W 038°24'1 0.8 1037.5 20.1
2018-Feb-12 08:00N 34°25' W 038°23'1 1.3 1037.1 20.1
2018-Feb-12 07:00N 34°26' W 038°23'1 0.8 1037.1 20.1
2018-Feb-12 06:00N 34°27' W 038°22'1 1.2 1037.4 20.1
2018-Feb-12 05:00N 34°28' W 038°21'1 1.3 1037.6 20.1
2018-Feb-12 04:00N 34°29' W 038°20'1 0.8 1038.1 20.0
2018-Feb-12 03:00N 34°29' W 038°20'1 1.3 1038.3 20.1
2018-Feb-12 02:00N 34°31' W 038°19'1 0.8 1039.0 20.0
2018-Feb-12 01:00N 34°31' W 038°19'1 1.3 1038.9 20.0
2018-Feb-12 00:00N 34°32' W 038°18'1 0.8 1039.0 20.0
2018-Feb-11 23:00N 34°33' W 038°17'1 0.8 1039.0 20.1
2018-Feb-11 22:00N 34°34' W 038°17'1 1.2 1038.7 20.1
2018-Feb-11 21:00N 34°34' W 038°16'1 0.8 1038.4 20.1
2018-Feb-11 20:00N 34°35' W 038°15'2 1.6 1037.8 20.1
2018-Feb-11 19:00N 34°36' W 038°14'1 1.2 1037.5 20.1
2018-Feb-11 18:00N 34°37' W 038°13'1 1.3 1037.7 20.1
2018-Feb-11 17:00N 34°38' W 038°12'2 1.6 1037.6 20.2
2018-Feb-11 16:00N 34°39' W 038°11'1 0.8 1038.2 20.1
2018-Feb-11 15:00N 34°40' W 038°10'2 1.6 1039.2 20.1
2018-Feb-11 14:00N 34°41' W 038°09'1 1.3 1039.6 20.1
2018-Feb-11 13:00N 34°42' W 038°08'1 1.3 1040.0 20.1
2018-Feb-11 12:00N 34°43' W 038°08'1 0.8 1040.0 20.1
2018-Feb-11 11:00N 34°44' W 038°07'1 0.8 1039.8 20.1
2018-Feb-11 10:00N 34°44' W 038°07'1 0.8 1039.3 20.1
2018-Feb-11 09:00N 34°45' W 038°06'1 1.3 1038.6 20.1
2018-Feb-11 08:00N 34°46' W 038°05'1 0.8 1038.2 20.1
2018-Feb-11 07:00N 34°47' W 038°05'1 0.8 1038.1 20.1
2018-Feb-11 06:00N 34°47' W 038°04'1 0.8 1038.0 20.1
2018-Feb-11 05:00N 34°48' W 038°04'1 0.8 1038.0 20.1
2018-Feb-11 04:00N 34°49' W 038°03'1 1.3 1038.4 20.1
2018-Feb-11 03:00N 34°50' W 038°02'1 0.8 1038.8 20.1
2018-Feb-11 02:00N 34°50' W 038°02'1 0.6 1039.3 20.1
2018-Feb-11 01:00N 34°51' W 038°02'0 0.5 1039.4 20.1
2018-Feb-11 00:00N 34°51' W 038°01'1 0.8 1039.6 20.2
2018-Feb-10 23:00N 34°52' W 038°01'0 0.5 1039.4 20.2
2018-Feb-10 22:00N 34°52' W 038°00'1 0.8 1039.2 20.2
2018-Feb-10 21:00N 34°52' W 037°59'0 0.5 1038.8 20.2
2018-Feb-10 20:00N 34°52' W 037°59'1 0.8 1038.4 20.4
2018-Feb-10 19:00N 34°53' W 037°58'1 0.8 1038.1 20.4
2018-Feb-10 18:00N 34°53' W 037°58'1 1.0 1038.0 20.5
2018-Feb-10 17:00N 34°53' W 037°56'1 0.8 1038.0 20.5
2018-Feb-10 16:00N 34°54' W 037°56'1 0.8 1038.5 20.4
2018-Feb-10 15:00N 34°55' W 037°55'2 1.6 1039.1 20.4
2018-Feb-10 14:00N 34°56' W 037°54'1 0.6 1039.8 20.2
2018-Feb-10 13:00N 34°56' W 037°54'1 0.8 1040.3 20.2
2018-Feb-10 12:00N 34°57' W 037°53'1 0.8 1040.1 20.1
2018-Feb-10 11:00N 34°58' W 037°53'1 0.8 1039.9 20.1
2018-Feb-10 10:00N 34°58' W 037°52'1 0.6 1039.4 20.1
2018-Feb-10 09:00N 34°59' W 037°52'1 0.8 1038.6 20.1
2018-Feb-10 08:00N 34°59' W 037°52'1 0.8 1038.5 20.1
2018-Feb-10 07:00N 35°00' W 037°51'0 0.0 1038.3 20.1
2018-Feb-10 06:00N 35°00' W 037°51'1 0.8 1038.1 20.1
2018-Feb-10 05:00N 35°01' W 037°50'0 0.5 1038.3 20.1
2018-Feb-10 04:00N 35°01' W 037°50'1 0.8 1038.6 20.1
2018-Feb-10 03:00N 35°01' W 037°49'0 0.5 1038.8 20.1
2018-Feb-10 02:00N 35°01' W 037°49'1 0.8 1039.1 20.1
2018-Feb-10 01:00N 35°02' W 037°48'   1039.4 20.1
Track history (hours):
 
Tides and Currents Weather Stations Pressure Air Temp Water Temp Dewpoint Dewpoint Depression Visibility Wind Speed Wind Dir Waves Ship Positions

Drifting buoy 44746

Last reported at 2018-Feb-20 01:00 UTC. Time now 2018-Feb-20 02:07 UTC.
Position N 32°45' W 040°25'.

Barometer 1018.1 mb
Water temperature 19.5 ° C

Date/timePositionNaut miles runAvg speedWind from/ knotsBaromVisibWave heightAir tempDewpointWater temp
2018-Feb-20 01:00N 32°45' W 040°25'1 1.2 1018.1 19.5
2018-Feb-20 00:00N 32°46' W 040°25'1 1.3 1017.7 19.5
2018-Feb-19 23:00N 32°47' W 040°25'1 1.3 1017.6 19.5
2018-Feb-19 22:00N 32°49' W 040°26'2 1.9 1017.4 19.6
2018-Feb-19 21:00N 32°50' W 040°26'1 0.8 1016.2 19.6
2018-Feb-19 20:00N 32°51' W 040°27'1 0.6 1016.4 19.6
2018-Feb-19 19:00N 32°52' W 040°27'1 0.5 1016.6 19.6
2018-Feb-19 18:00N 32°52' W 040°28'0 0.0 1017.0 19.5
2018-Feb-19 17:00N 32°52' W 040°28'1 0.8 1017.7 19.5
2018-Feb-19 16:00N 32°52' W 040°28'0 0.0 1018.4 19.5
2018-Feb-19 15:00N 32°52' W 040°28'0 0.0 1019.5 19.4
2018-Feb-19 14:00N 32°52' W 040°28'1 0.8 1020.3 19.4
2018-Feb-19 13:00N 32°53' W 040°29'0 0.0 1020.7 19.4
2018-Feb-19 12:00N 32°53' W 040°29'0 0.0 1021.0 19.5
2018-Feb-19 11:00N 32°53' W 040°29'1 0.6 1021.0 19.7
2018-Feb-19 10:00N 32°53' W 040°29'1 0.5 1020.9 19.8
2018-Feb-19 09:00N 32°53' W 040°28'1 0.6 1020.9 19.9
2018-Feb-19 08:00N 32°54' W 040°28'0 0.0 1021.0 19.9
2018-Feb-19 07:00N 32°54' W 040°28'1 0.6 1021.3 19.9
2018-Feb-19 06:00N 32°55' W 040°28'0 0.0 1021.6 19.9
2018-Feb-19 05:00N 32°55' W 040°28'1 0.6 1022.1 19.9
2018-Feb-19 04:00N 32°55' W 040°28'1 0.5 1022.3 19.9
2018-Feb-19 03:00N 32°55' W 040°28'1 0.6 1022.6 19.9
2018-Feb-19 02:00N 32°56' W 040°28'1 0.8 1022.8 19.9
2018-Feb-19 01:00N 32°56' W 040°27'0 0.0 1023.2 20.0
2018-Feb-19 00:00N 32°56' W 040°27'1 0.8 1023.2 20.0
2018-Feb-18 23:00N 32°57' W 040°26'1 0.8 1023.2 20.0
2018-Feb-18 22:00N 32°58' W 040°26'1 0.6 1022.9 20.0
2018-Feb-18 21:00N 32°58' W 040°26'1 0.5 1022.8 20.0
2018-Feb-18 20:00N 32°58' W 040°25'1 0.8 1022.6 20.0
2018-Feb-18 19:00N 32°59' W 040°25'0 0.0 1022.7 20.0
2018-Feb-18 18:00N 32°59' W 040°25'1 0.8 1022.9 20.0
2018-Feb-18 17:00N 32°59' W 040°24'1 1.0 1022.6 20.0
2018-Feb-18 16:00N 32°59' W 040°23'1 0.5 1022.9 19.9
2018-Feb-18 15:00N 32°59' W 040°22'1 1.0 1023.8 19.8
2018-Feb-18 14:00N 32°59' W 040°21'1 0.8 1023.9 19.3
2018-Feb-18 13:00N 33°00' W 040°20'1 0.5 1024.0 19.2
2018-Feb-18 12:00N 33°00' W 040°20'1 0.8 1024.1 19.2
2018-Feb-18 11:00N 33°01' W 040°19'1 1.2 1023.9 19.2
2018-Feb-18 10:00N 33°01' W 040°18'1 0.5 1023.5 19.2
2018-Feb-18 09:00N 33°01' W 040°17'1 0.8 1023.0 19.2
2018-Feb-18 08:00N 33°02' W 040°17'1 0.8 1022.4 19.1
2018-Feb-18 07:00N 33°02' W 040°16'1 0.5 1022.1 19.1
2018-Feb-18 06:00N 33°02' W 040°16'1 0.8 1021.9 19.2
2018-Feb-18 05:00N 33°03' W 040°15'1 0.5 1022.6 19.2
2018-Feb-18 04:00N 33°03' W 040°14'1 0.5 1023.2 19.2
2018-Feb-18 03:00N 33°03' W 040°14'0 0.0 1023.4 19.3
2018-Feb-18 02:00N 33°03' W 040°14'1 0.5 1024.3 19.2
2018-Feb-18 01:00N 33°03' W 040°13'1 1.0 1024.6 19.2
2018-Feb-18 00:00N 33°03' W 040°12'1 0.5 1024.7 19.2
2018-Feb-17 23:00N 33°03' W 040°11'1 0.6 1024.9 19.2
2018-Feb-17 22:00N 33°04' W 040°11'1 0.5 1025.1 19.2
2018-Feb-17 21:00N 33°04' W 040°11'0 0.0 1025.0 19.4
2018-Feb-17 20:00N 33°04' W 040°11'0 0.0 1024.4 19.5
2018-Feb-17 19:00N 33°04' W 040°11'1 0.5 1024.0 19.6
2018-Feb-17 18:00N 33°04' W 040°10'0 0.0 1024.0 19.5
2018-Feb-17 17:00N 33°04' W 040°10'1 0.5 1024.4 19.5
2018-Feb-17 16:00N 33°04' W 040°10'1 0.5 1025.0 19.5
2018-Feb-17 15:00N 33°04' W 040°09'1 1.2 1025.8 19.5
2018-Feb-17 14:00N 33°03' W 040°08'1 0.8 1026.6 19.5
2018-Feb-17 13:00N 33°04' W 040°07'1 1.0 1026.8 19.5
2018-Feb-17 12:00N 33°04' W 040°06'1 1.0 1026.8 19.5
2018-Feb-17 11:00N 33°04' W 040°05'1 1.2 1026.6 19.4
2018-Feb-17 10:00N 33°04' W 040°04'1 1.0 1026.1 19.4
2018-Feb-17 09:00N 33°04' W 040°02'1 1.2 1025.6 19.4
2018-Feb-17 08:00N 33°05' W 040°01'1 1.2 1025.4 19.3
2018-Feb-17 07:00N 33°05' W 040°00'1 0.5 1025.4 19.3
2018-Feb-17 06:00N 33°05' W 039°59'1 1.2 1025.5 19.3
2018-Feb-17 05:00N 33°06' W 039°58'1 1.2 1026.1 19.4
2018-Feb-17 04:00N 33°07' W 039°57'1 1.0 1026.2 19.3
2018-Feb-17 03:00N 33°07' W 039°56'1 1.2 1026.4 19.3
2018-Feb-17 02:00N 33°07' W 039°55'1 0.5 1026.8 19.2
2018-Feb-17 01:00N 33°07' W 039°54'1 1.0 1027.1 19.2
2018-Feb-17 00:00N 33°07' W 039°53'1 1.0 1027.2 19.2
2018-Feb-16 23:00N 33°07' W 039°52'1 0.8 1027.1 19.2
2018-Feb-16 22:00N 33°08' W 039°51'1 1.2 1027.0 19.1
2018-Feb-16 21:00N 33°07' W 039°50'1 1.0 1026.7 19.2
2018-Feb-16 20:00N 33°07' W 039°49'2 1.5 1026.2 19.1
2018-Feb-16 19:00N 33°07' W 039°47'1 1.2 1025.8 19.2
2018-Feb-16 18:00N 33°08' W 039°46'2 1.5 1025.7 19.2
2018-Feb-16 17:00N 33°08' W 039°44'1 1.0 1025.7 19.2
2018-Feb-16 16:00N 33°08' W 039°43'1 1.2 1025.9 19.3
2018-Feb-16 15:00N 33°08' W 039°41'1 1.0 1026.4 19.2
2018-Feb-16 14:00N 33°08' W 039°40'1 1.2 1026.8 19.2
2018-Feb-16 13:00N 33°09' W 039°39'1 0.5 1027.2 19.2
2018-Feb-16 12:00N 33°09' W 039°38'1 1.2 1027.3 19.2
2018-Feb-16 11:00N 33°10' W 039°37'1 0.5 1027.2 19.2
2018-Feb-16 10:00N 33°10' W 039°37'1 0.8 1026.8 19.1
2018-Feb-16 09:00N 33°10' W 039°36'1 1.2 1026.3 19.1
2018-Feb-16 08:00N 33°11' W 039°35'1 1.0 1026.1 19.0
2018-Feb-16 07:00N 33°11' W 039°34'1 1.2 1025.8 19.0
2018-Feb-16 06:00N 33°11' W 039°32'2 1.6 1026.0 19.1
2018-Feb-16 05:00N 33°12' W 039°31'1 1.2 1026.3 19.1
2018-Feb-16 04:00N 33°13' W 039°29'1 1.0 1026.3 19.1
2018-Feb-16 03:00N 33°13' W 039°28'1 1.2 1026.4 19.1
2018-Feb-16 02:00N 33°13' W 039°27'1 1.0 1026.4 19.1
2018-Feb-16 01:00N 33°13' W 039°26'1 0.8 1026.5 19.1
2018-Feb-16 00:00N 33°14' W 039°25'2 1.5 1026.4 19.1
2018-Feb-15 23:00N 33°14' W 039°23'1 1.2 1026.2 19.1
2018-Feb-15 22:00N 33°14' W 039°22'1 1.2 1026.0 19.2
2018-Feb-15 21:00N 33°15' W 039°21'1 1.2 1025.6 19.3
2018-Feb-15 20:00N 33°16' W 039°20'2 1.6 1025.3 19.4
2018-Feb-15 19:00N 33°17' W 039°19'1 1.2 1024.8 19.3
2018-Feb-15 18:00N 33°17' W 039°17'2 1.6 1024.4 19.3
2018-Feb-15 17:00N 33°19' W 039°16'1 0.8 1024.4 19.3
2018-Feb-15 16:00N 33°19' W 039°16'1 1.3 1024.6 19.3
2018-Feb-15 15:00N 33°20' W 039°15'1 1.2 1024.8 19.2
2018-Feb-15 14:00N 33°21' W 039°14'1 1.2 1025.1 19.2
2018-Feb-15 13:00N 33°22' W 039°13'2 1.6 1025.2 19.1
2018-Feb-15 12:00N 33°23' W 039°11'2 1.6 1024.7 19.1
2018-Feb-15 11:00N 33°23' W 039°10'1 1.2 1024.4 19.1
2018-Feb-15 10:00N 33°24' W 039°08'2 1.6 1023.5 19.2
2018-Feb-15 09:00N 33°25' W 039°07'2 1.9 1023.0 19.3
2018-Feb-15 08:00N 33°26' W 039°05'2 1.6 1022.5 19.4
2018-Feb-15 07:00N 33°26' W 039°03'2 2.1 1022.0 19.5
2018-Feb-15 06:00N 33°27' W 039°01'2 1.9 1021.8 19.8
2018-Feb-15 05:00N 33°28' W 038°59'2 1.6 1021.9 20.0
2018-Feb-15 04:00N 33°29' W 038°57'2 1.9 1022.1 20.0
2018-Feb-15 03:00N 33°30' W 038°55'2 1.9 1022.2 20.0
2018-Feb-15 02:00N 33°31' W 038°53'2 1.6 1022.1 20.1
2018-Feb-15 01:00N 33°32' W 038°52'2 1.6 1022.4 20.0
2018-Feb-15 00:00N 33°33' W 038°50'2 1.6 1022.3 20.1
2018-Feb-14 23:00N 33°34' W 038°49'1 1.2 1022.0 20.1
2018-Feb-14 22:00N 33°35' W 038°48'2 1.6 1021.8 20.0
2018-Feb-14 21:00N 33°36' W 038°47'1 1.3 1021.5 20.1
2018-Feb-14 20:00N 33°37' W 038°46'1 1.2 1021.3 20.1
2018-Feb-14 19:00N 33°38' W 038°45'1 1.3 1021.1 20.1
2018-Feb-14 18:00N 33°39' W 038°44'1 0.6 1021.1 20.1
2018-Feb-14 17:00N 33°40' W 038°44'1 1.3 1021.4 20.1
2018-Feb-14 16:00N 33°41' W 038°44'1 0.8 1021.5 20.1
2018-Feb-14 15:00N 33°41' W 038°43'1 1.2 1022.2 20.0
2018-Feb-14 14:00N 33°43' W 038°43'1 0.8 1022.8 20.1
2018-Feb-14 13:00N 33°43' W 038°43'1 0.6 1023.4 20.1
2018-Feb-14 12:00N 33°44' W 038°43'1 0.8 1023.0 20.1
2018-Feb-14 11:00N 33°44' W 038°42'1 0.6 1022.8 20.1
2018-Feb-14 10:00N 33°45' W 038°42'1 1.3 1022.7 20.1
2018-Feb-14 09:00N 33°46' W 038°41'1 0.6 1022.5 20.0
2018-Feb-14 08:00N 33°47' W 038°41'1 0.8 1022.7 20.0
2018-Feb-14 07:00N 33°47' W 038°41'1 1.3 1023.0 20.0
2018-Feb-14 06:00N 33°49' W 038°40'1 1.2 1023.3 20.0
2018-Feb-14 05:00N 33°50' W 038°40'1 0.8 1023.9 20.0
2018-Feb-14 04:00N 33°50' W 038°40'1 1.2 1024.7 20.0
2018-Feb-14 03:00N 33°52' W 038°40'1 0.6 1025.0 20.0
2018-Feb-14 02:00N 33°52' W 038°40'1 0.6 1025.7 20.1
2018-Feb-14 01:00N 33°53' W 038°40'1 0.6 1025.9 20.1
2018-Feb-14 00:00N 33°53' W 038°40'1 0.6 1026.4 20.0
2018-Feb-13 23:00N 33°54' W 038°40'1 0.8 1026.6 20.1
2018-Feb-13 22:00N 33°55' W 038°39'1 0.6 1026.8 20.1
2018-Feb-13 21:00N 33°55' W 038°39'1 0.6 1027.0 20.1
2018-Feb-13 20:00N 33°56' W 038°39'1 0.8 1027.0 20.2
2018-Feb-13 19:00N 33°56' W 038°38'1 0.6 1027.0 20.2
2018-Feb-13 18:00N 33°57' W 038°38'1 0.8 1027.3 20.2
2018-Feb-13 17:00N 33°58' W 038°38'1 0.6 1027.8 20.2
2018-Feb-13 16:00N 33°58' W 038°38'1 0.6 1028.0 20.3
2018-Feb-13 15:00N 33°59' W 038°38'1 1.2 1028.6 20.3
2018-Feb-13 14:00N 34°00' W 038°38'1 0.8 1029.5 20.1
2018-Feb-13 13:00N 34°01' W 038°37'1 1.2 1030.5 20.1
2018-Feb-13 12:00N 34°02' W 038°37'1 0.6 1030.5 20.1
2018-Feb-13 11:00N 34°02' W 038°37'1 0.6 1030.6 20.1
2018-Feb-13 10:00N 34°03' W 038°37'1 1.3 1030.6 20.1
2018-Feb-13 09:00N 34°04' W 038°37'1 0.6 1030.3 20.1
2018-Feb-13 08:00N 34°05' W 038°37'1 0.8 1030.1 20.1
2018-Feb-13 07:00N 34°05' W 038°36'1 0.8 1030.4 20.1
2018-Feb-13 06:00N 34°06' W 038°35'1 0.6 1030.9 20.2
2018-Feb-13 05:00N 34°07' W 038°35'1 0.8 1031.5 20.1
2018-Feb-13 04:00N 34°07' W 038°35'1 1.2 1032.2 20.1
2018-Feb-13 03:00N 34°08' W 038°35'1 0.8 1032.7 20.1
2018-Feb-13 02:00N 34°09' W 038°34'1 0.8 1033.2 20.1
2018-Feb-13 01:00N 34°10' W 038°34'1 0.6 1033.6 20.2
2018-Feb-13 00:00N 34°10' W 038°34'1 0.8 1034.3 20.1
2018-Feb-12 23:00N 34°11' W 038°33'1 1.2 1034.4 20.1
2018-Feb-12 22:00N 34°11' W 038°32'1 0.8 1034.3 20.1
2018-Feb-12 21:00N 34°12' W 038°31'1 1.3 1034.2 20.1
2018-Feb-12 20:00N 34°13' W 038°31'1 1.2 1034.1 20.2
2018-Feb-12 19:00N 34°14' W 038°29'1 1.3 1034.3 20.3
2018-Feb-12 18:00N 34°15' W 038°29'1 1.3 1034.6 20.3
2018-Feb-12 17:00N 34°16' W 038°28'1 1.3 1035.0 20.3
2018-Feb-12 16:00N 34°17' W 038°28'1 1.3 1035.6 20.4
2018-Feb-12 15:00N 34°19' W 038°27'1 1.3 1036.5 20.3
2018-Feb-12 14:00N 34°20' W 038°26'1 0.8 1037.5 20.1
2018-Feb-12 13:00N 34°20' W 038°26'1 1.3 1038.1 20.1
2018-Feb-12 12:00N 34°22' W 038°25'1 1.3 1038.3 20.1
2018-Feb-12 11:00N 34°23' W 038°25'1 0.6 1038.1 20.1
2018-Feb-12 10:00N 34°23' W 038°25'1 1.3 1037.7 20.1
2018-Feb-12 09:00N 34°25' W 038°24'1 0.8 1037.5 20.1
2018-Feb-12 08:00N 34°25' W 038°23'1 1.3 1037.1 20.1
2018-Feb-12 07:00N 34°26' W 038°23'1 0.8 1037.1 20.1
2018-Feb-12 06:00N 34°27' W 038°22'1 1.2 1037.4 20.1
2018-Feb-12 05:00N 34°28' W 038°21'1 1.3 1037.6 20.1
2018-Feb-12 04:00N 34°29' W 038°20'1 0.8 1038.1 20.0
2018-Feb-12 03:00N 34°29' W 038°20'1 1.3 1038.3 20.1
2018-Feb-12 02:00N 34°31' W 038°19'1 0.8 1039.0 20.0
2018-Feb-12 01:00N 34°31' W 038°19'1 1.3 1038.9 20.0
2018-Feb-12 00:00N 34°32' W 038°18'1 0.8 1039.0 20.0
2018-Feb-11 23:00N 34°33' W 038°17'1 0.8 1039.0 20.1
2018-Feb-11 22:00N 34°34' W 038°17'1 1.2 1038.7 20.1
2018-Feb-11 21:00N 34°34' W 038°16'1 0.8 1038.4 20.1
2018-Feb-11 20:00N 34°35' W 038°15'2 1.6 1037.8 20.1
2018-Feb-11 19:00N 34°36' W 038°14'1 1.2 1037.5 20.1
2018-Feb-11 18:00N 34°37' W 038°13'1 1.3 1037.7 20.1
2018-Feb-11 17:00N 34°38' W 038°12'2 1.6 1037.6 20.2
2018-Feb-11 16:00N 34°39' W 038°11'1 0.8 1038.2 20.1
2018-Feb-11 15:00N 34°40' W 038°10'2 1.6 1039.2 20.1
2018-Feb-11 14:00N 34°41' W 038°09'1 1.3 1039.6 20.1
2018-Feb-11 13:00N 34°42' W 038°08'1 1.3 1040.0 20.1
2018-Feb-11 12:00N 34°43' W 038°08'1 0.8 1040.0 20.1
2018-Feb-11 11:00N 34°44' W 038°07'1 0.8 1039.8 20.1
2018-Feb-11 10:00N 34°44' W 038°07'1 0.8 1039.3 20.1
2018-Feb-11 09:00N 34°45' W 038°06'1 1.3 1038.6 20.1
2018-Feb-11 08:00N 34°46' W 038°05'1 0.8 1038.2 20.1
2018-Feb-11 07:00N 34°47' W 038°05'1 0.8 1038.1 20.1
2018-Feb-11 06:00N 34°47' W 038°04'1 0.8 1038.0 20.1
2018-Feb-11 05:00N 34°48' W 038°04'1 0.8 1038.0 20.1
2018-Feb-11 04:00N 34°49' W 038°03'1 1.3 1038.4 20.1
2018-Feb-11 03:00N 34°50' W 038°02'1 0.8 1038.8 20.1
2018-Feb-11 02:00N 34°50' W 038°02'1 0.6 1039.3 20.1
2018-Feb-11 01:00N 34°51' W 038°02'0 0.5 1039.4 20.1
2018-Feb-11 00:00N 34°51' W 038°01'1 0.8 1039.6 20.2
2018-Feb-10 23:00N 34°52' W 038°01'0 0.5 1039.4 20.2
2018-Feb-10 22:00N 34°52' W 038°00'1 0.8 1039.2 20.2
2018-Feb-10 21:00N 34°52' W 037°59'0 0.5 1038.8 20.2
2018-Feb-10 20:00N 34°52' W 037°59'1 0.8 1038.4 20.4
2018-Feb-10 19:00N 34°53' W 037°58'1 0.8 1038.1 20.4
2018-Feb-10 18:00N 34°53' W 037°58'1 1.0 1038.0 20.5
2018-Feb-10 17:00N 34°53' W 037°56'1 0.8 1038.0 20.5
2018-Feb-10 16:00N 34°54' W 037°56'1 0.8 1038.5 20.4
2018-Feb-10 15:00N 34°55' W 037°55'2 1.6 1039.1 20.4
2018-Feb-10 14:00N 34°56' W 037°54'1 0.6 1039.8 20.2
2018-Feb-10 13:00N 34°56' W 037°54'1 0.8 1040.3 20.2
2018-Feb-10 12:00N 34°57' W 037°53'1 0.8 1040.1 20.1
2018-Feb-10 11:00N 34°58' W 037°53'1 0.8 1039.9 20.1
2018-Feb-10 10:00N 34°58' W 037°52'1 0.6 1039.4 20.1
2018-Feb-10 09:00N 34°59' W 037°52'1 0.8 1038.6 20.1
2018-Feb-10 08:00N 34°59' W 037°52'1 0.8 1038.5 20.1
2018-Feb-10 07:00N 35°00' W 037°51'0 0.0 1038.3 20.1
2018-Feb-10 06:00N 35°00' W 037°51'1 0.8 1038.1 20.1
2018-Feb-10 05:00N 35°01' W 037°50'0 0.5 1038.3 20.1
2018-Feb-10 04:00N 35°01' W 037°50'1 0.8 1038.6 20.1
2018-Feb-10 03:00N 35°01' W 037°49'0 0.5 1038.8 20.1
2018-Feb-10 02:00N 35°01' W 037°49'1 0.8 1039.1 20.1
2018-Feb-10 01:00N 35°02' W 037°48'   1039.4 20.1

Dump ship's entire track history